Time,TemperatureF,DewpointF,PressureIn,WindDirection,WindDirectionDegrees,WindSpeedMPH,WindSpeedGustMPH,Humidity,HourlyPrecipIn,Conditions,Clouds,dailyrainin,SoftwareType,DateUTC
2013-03-20 00:03:00,23.2,21.0,29.73,North,360,0.0,0.0,91,0.00,,,0.00,weatherlink.com 1.10,2013-03-20 04:03:00,
2013-03-20 00:18:00,22.8,21.0,29.72,North,3,0.0,0.0,92,0.00,,,0.00,weatherlink.com 1.10,2013-03-20 04:18:00,
2013-03-20 00:34:00,22.7,21.0,29.72,SSW,195,0.0,0.0,91,0.00,,,0.00,weatherlink.com 1.10,2013-03-20 04:34:00,
2013-03-20 00:49:00,22.8,21.0,29.73,NNW,336,0.0,0.0,92,0.00,,,0.00,weatherlink.com 1.10,2013-03-20 04:49:00,
2013-03-20 01:04:00,22.9,21.0,29.72,NW,323,0.0,0.0,92,0.00,,,0.00,weatherlink.com 1.10,2013-03-20 05:04:00,
2013-03-20 01:19:00,23.0,21.0,29.72,North,3,0.0,0.0,92,0.00,,,0.00,weatherlink.com 1.10,2013-03-20 05:19:00,
2013-03-20 01:34:00,23.1,21.0,29.72,North,352,0.0,0.0,92,0.00,,,0.00,weatherlink.com 1.10,2013-03-20 05:34:00,
2013-03-20 01:49:00,23.1,21.0,29.72,North,351,0.0,0.0,92,0.00,,,0.00,weatherlink.com 1.10,2013-03-20 05:49:00,
2013-03-20 02:04:00,23.0,21.0,29.72,North,351,0.0,0.0,92,0.00,,,0.00,weatherlink.com 1.10,2013-03-20 06:04:00,
2013-03-20 02:19:00,23.0,21.0,29.71,North,351,0.0,0.0,92,0.00,,,0.00,weatherlink.com 1.10,2013-03-20 06:19:00,
2013-03-20 02:34:00,22.9,21.0,29.71,North,351,0.0,0.0,92,0.00,,,0.00,weatherlink.com 1.10,2013-03-20 06:34:00,
2013-03-20 02:49:00,22.7,21.0,29.71,North,351,0.0,0.0,92,0.00,,,0.00,weatherlink.com 1.10,2013-03-20 06:49:00,
2013-03-20 03:04:00,22.6,21.0,29.71,North,351,0.0,0.0,93,0.00,,,0.00,weatherlink.com 1.10,2013-03-20 07:04:00,
2013-03-20 03:19:00,22.7,21.0,29.70,West,260,0.0,0.0,93,0.00,,,0.00,weatherlink.com 1.10,2013-03-20 07:19:00,
2013-03-20 03:34:00,22.7,21.0,29.70,West,260,0.0,0.0,93,0.00,,,0.00,weatherlink.com 1.10,2013-03-20 07:34:00,
2013-03-20 03:49:00,22.8,21.0,29.70,WSW,243,0.0,0.0,93,0.00,,,0.00,weatherlink.com 1.10,2013-03-20 07:49:00,
2013-03-20 04:04:00,22.9,21.0,29.70,WSW,243,0.0,0.0,93,0.00,,,0.00,weatherlink.com 1.10,2013-03-20 08:04:00,
2013-03-20 04:19:00,23.0,21.0,29.70,WSW,256,0.0,0.0,93,0.00,,,0.00,weatherlink.com 1.10,2013-03-20 08:19:00,
2013-03-20 04:34:00,23.1,21.0,29.70,SW,228,0.0,0.0,92,0.00,,,0.00,weatherlink.com 1.10,2013-03-20 08:34:00,
2013-03-20 04:49:00,23.1,21.0,29.70,South,191,0.0,0.0,92,0.00,,,0.00,weatherlink.com 1.10,2013-03-20 08:49:00,
2013-03-20 05:04:00,23.2,22.0,29.70,West,270,0.0,0.0,93,0.00,,,0.00,weatherlink.com 1.10,2013-03-20 09:04:00,
2013-03-20 05:19:00,23.6,22.0,29.70,East,99,0.0,0.0,92,0.00,,,0.00,weatherlink.com 1.10,2013-03-20 09:19:00,
2013-03-20 05:34:00,23.8,22.0,29.70,SW,222,0.0,0.0,92,0.00,,,0.00,weatherlink.com 1.10,2013-03-20 09:34:00,
2013-03-20 05:49:00,24.0,22.0,29.70,SSW,210,0.0,0.0,91,0.00,,,0.00,weatherlink.com 1.10,2013-03-20 09:49:00,
2013-03-20 06:04:00,24.1,22.0,29.70,SSE,154,0.0,0.0,90,0.00,,,0.00,weatherlink.com 1.10,2013-03-20 10:04:00,
2013-03-20 06:19:00,24.2,22.0,29.71,WSW,248,0.0,0.0,90,0.00,,,0.00,weatherlink.com 1.10,2013-03-20 10:19:00,
2013-03-20 06:34:00,24.1,22.0,29.71,SE,143,0.0,0.0,90,0.00,,,0.00,weatherlink.com 1.10,2013-03-20 10:34:00,
2013-03-20 06:49:00,24.2,22.0,29.72,South,177,0.0,0.0,89,0.00,,,0.00,weatherlink.com 1.10,2013-03-20 10:49:00,
2013-03-20 07:04:00,24.1,21.0,29.72,SW,229,0.0,0.0,89,0.00,,,0.00,weatherlink.com 1.10,2013-03-20 11:04:00,
2013-03-20 07:20:00,24.1,21.0,29.72,South,186,0.0,0.0,88,0.00,,,0.00,weatherlink.com 1.10,2013-03-20 11:20:00,
2013-03-20 07:34:00,24.2,21.0,29.72,ESE,123,0.0,0.0,88,0.00,,,0.00,weatherlink.com 1.10,2013-03-20 11:34:00,
2013-03-20 07:49:00,24.5,21.0,29.72,SSE,155,0.0,0.0,86,0.00,,,0.00,weatherlink.com 1.10,2013-03-20 11:49:00,
2013-03-20 08:04:00,24.8,21.0,29.73,SSE,150,0.0,0.0,86,0.00,,,0.00,weatherlink.com 1.10,2013-03-20 12:04:00,
2013-03-20 08:19:00,24.6,21.0,29.73,SSW,205,0.0,0.0,85,0.00,,,0.00,weatherlink.com 1.10,2013-03-20 12:19:00,
2013-03-20 08:34:00,25.2,21.0,29.72,West,270,0.0,0.0,84,0.00,,,0.00,weatherlink.com 1.10,2013-03-20 12:34:00,
2013-03-20 08:49:00,26.0,21.0,29.72,SSE,148,0.0,0.0,82,0.00,,,0.00,weatherlink.com 1.10,2013-03-20 12:49:00,
2013-03-20 09:04:00,27.1,23.0,29.72,SE,135,0.0,0.0,83,0.00,,,0.00,weatherlink.com 1.10,2013-03-20 13:04:00,
2013-03-20 09:19:00,27.9,22.0,29.72,WSW,248,0.0,0.0,79,0.00,,,0.00,weatherlink.com 1.10,2013-03-20 13:19:00,
2013-03-20 09:34:00,29.0,23.0,29.72,NW,315,0.0,0.0,77,0.00,,,0.00,weatherlink.com 1.10,2013-03-20 13:34:00,
2013-03-20 09:49:00,29.5,23.0,29.72,NW,321,0.0,0.0,75,0.00,,,0.00,weatherlink.com 1.10,2013-03-20 13:49:00,
2013-03-20 10:04:00,30.4,22.0,29.72,NE,46,0.0,0.0,70,0.00,,,0.00,weatherlink.com 1.10,2013-03-20 14:04:00,
2013-03-20 10:19:00,30.3,22.0,29.72,NNE,18,0.0,0.0,71,0.00,,,0.00,weatherlink.com 1.10,2013-03-20 14:19:00,
2013-03-20 10:35:00,32.2,23.0,29.72,WSW,248,0.0,0.0,69,0.00,,,0.00,weatherlink.com 1.10,2013-03-20 14:35:00,
2013-03-20 10:50:00,31.2,20.0,29.72,NE,51,0.0,0.0,64,0.00,,,0.00,weatherlink.com 1.10,2013-03-20 14:50:00,
2013-03-20 11:05:00,30.8,21.0,29.72,NNW,344,0.0,0.0,68,0.00,,,0.00,weatherlink.com 1.10,2013-03-20 15:05:00,
2013-03-20 11:20:00,30.4,22.0,29.73,West,267,0.0,0.0,70,0.00,,,0.00,weatherlink.com 1.10,2013-03-20 15:20:00,
2013-03-20 11:35:00,31.0,22.0,29.73,SW,222,0.0,0.0,68,0.00,,,0.00,weatherlink.com 1.10,2013-03-20 15:35:00,
2013-03-20 11:50:00,32.7,22.0,29.73,West,265,0.0,0.0,65,0.00,,,0.00,weatherlink.com 1.10,2013-03-20 15:50:00,
2013-03-20 12:05:00,33.8,22.0,29.72,SE,135,0.0,0.0,63,0.00,,,0.00,weatherlink.com 1.10,2013-03-20 16:05:00,
2013-03-20 12:20:00,32.8,21.0,29.73,South,177,0.0,0.0,63,0.00,,,0.00,weatherlink.com 1.10,2013-03-20 16:20:00,
2013-03-20 12:35:00,32.7,21.0,29.73,WSW,239,0.0,0.0,63,0.00,,,0.00,weatherlink.com 1.10,2013-03-20 16:35:00,
2013-03-20 12:50:00,33.8,21.0,29.72,WSW,242,0.0,0.0,60,0.00,,,0.00,weatherlink.com 1.10,2013-03-20 16:50:00,
2013-03-20 13:05:00,34.0,23.0,29.72,ENE,68,0.0,0.0,64,0.00,,,0.00,weatherlink.com 1.10,2013-03-20 17:05:00,
2013-03-20 13:20:00,35.1,22.0,29.72,South,185,0.0,0.0,59,0.01,,,0.01,weatherlink.com 1.10,2013-03-20 17:20:00,
2013-03-20 13:35:00,33.9,21.0,29.72,WSW,249,0.0,0.0,60,0.01,,,0.01,weatherlink.com 1.10,2013-03-20 17:35:00,
2013-03-20 13:50:00,34.1,19.0,29.72,North,1,0.0,0.0,54,0.01,,,0.01,weatherlink.com 1.10,2013-03-20 17:50:00,
2013-03-20 14:05:00,35.4,22.0,29.72,SSW,200,0.0,0.0,58,0.02,,,0.02,weatherlink.com 1.10,2013-03-20 18:05:00,
2013-03-20 14:35:00,37.4,23.0,29.71,SW,215,0.0,0.0,56,0.02,,,0.03,weatherlink.com 1.10,2013-03-20 18:35:00,
2013-03-20 14:50:00,35.4,21.0,29.71,NE,39,0.0,0.0,57,0.02,,,0.03,weatherlink.com 1.10,2013-03-20 18:50:00,
2013-03-20 15:05:00,33.9,21.0,29.71,SW,221,0.0,0.0,60,0.02,,,0.04,weatherlink.com 1.10,2013-03-20 19:05:00,
2013-03-20 15:20:00,34.0,20.0,29.71,West,274,0.0,0.0,58,0.03,,,0.05,weatherlink.com 1.10,2013-03-20 19:20:00,
2013-03-20 15:35:00,35.0,22.0,29.71,SSW,211,0.0,0.0,59,0.03,,,0.06,weatherlink.com 1.10,2013-03-20 19:35:00,
2013-03-20 15:50:00,34.6,21.0,29.71,SW,228,0.0,0.0,59,0.03,,,0.06,weatherlink.com 1.10,2013-03-20 19:50:00,
2013-03-20 16:05:00,35.3,21.0,29.71,WSW,243,0.0,0.0,56,0.03,,,0.07,weatherlink.com 1.10,2013-03-20 20:05:00,
2013-03-20 16:20:00,35.4,21.0,29.71,North,360,0.0,0.0,57,0.03,,,0.08,weatherlink.com 1.10,2013-03-20 20:20:00,
2013-03-20 16:35:00,35.9,21.0,29.71,NE,46,0.0,0.0,54,0.03,,,0.09,weatherlink.com 1.10,2013-03-20 20:35:00,
2013-03-20 16:50:00,36.0,22.0,29.72,WNW,298,0.0,0.0,56,0.03,,,0.09,weatherlink.com 1.10,2013-03-20 20:50:00,
2013-03-20 17:05:00,34.6,21.0,29.72,SSW,208,0.0,0.0,58,0.03,,,0.10,weatherlink.com 1.10,2013-03-20 21:05:00,
2013-03-20 17:20:00,35.1,21.0,29.72,NW,311,0.0,0.0,58,0.02,,,0.10,weatherlink.com 1.10,2013-03-20 21:20:00,
2013-03-20 17:50:00,33.3,20.0,29.73,NE,34,0.0,0.0,59,0.02,,,0.11,weatherlink.com 1.10,2013-03-20 21:50:00,
2013-03-20 18:05:00,33.3,20.0,29.73,WSW,247,0.0,0.0,59,0.01,,,0.11,weatherlink.com 1.10,2013-03-20 22:05:00,
2013-03-20 18:20:00,32.9,21.0,29.74,SSE,155,0.0,0.0,63,0.01,,,0.11,weatherlink.com 1.10,2013-03-20 22:20:00,
2013-03-20 18:35:00,32.4,20.0,29.75,SSW,197,0.0,0.0,61,0.00,,,0.11,weatherlink.com 1.10,2013-03-20 22:35:00,
2013-03-20 18:50:00,31.8,20.0,29.75,NW,311,0.0,0.0,62,0.00,,,0.11,weatherlink.com 1.10,2013-03-20 22:50:00,
2013-03-20 19:05:00,31.0,20.0,29.76,ESE,104,0.0,0.0,64,0.00,,,0.11,weatherlink.com 1.10,2013-03-20 23:05:00,
2013-03-20 19:20:00,30.4,19.0,29.76,West,266,0.0,0.0,64,0.00,,,0.11,weatherlink.com 1.10,2013-03-20 23:20:00,
2013-03-20 19:35:00,29.6,19.0,29.77,SW,232,0.0,0.0,65,0.00,,,0.11,weatherlink.com 1.10,2013-03-20 23:35:00,
2013-03-20 19:50:00,29.4,19.0,29.77,WSW,239,0.0,0.0,66,0.00,,,0.11,weatherlink.com 1.10,2013-03-20 23:50:00,
2013-03-20 20:05:00,29.0,19.0,29.77,SSW,201,0.0,0.0,67,0.00,,,0.11,weatherlink.com 1.10,2013-03-21 00:05:00,
2013-03-20 20:20:00,28.6,19.0,29.77,WSW,245,0.0,0.0,68,0.00,,,0.11,weatherlink.com 1.10,2013-03-21 00:20:00,
2013-03-20 20:35:00,28.2,19.0,29.78,SW,233,0.0,0.0,68,0.00,,,0.11,weatherlink.com 1.10,2013-03-21 00:35:00,
2013-03-20 20:50:00,27.8,18.0,29.78,SSE,156,0.0,0.0,68,0.00,,,0.11,weatherlink.com 1.10,2013-03-21 00:50:00,
2013-03-20 21:05:00,27.4,18.0,29.78,North,8,0.0,0.0,69,0.00,,,0.11,weatherlink.com 1.10,2013-03-21 01:05:00,
2013-03-20 21:20:00,26.6,19.0,29.79,ESE,117,0.0,0.0,72,0.00,,,0.11,weatherlink.com 1.10,2013-03-21 01:20:00,
2013-03-20 21:35:00,26.1,18.0,29.78,ENE,65,0.0,0.0,72,0.00,,,0.11,weatherlink.com 1.10,2013-03-21 01:35:00,
2013-03-20 21:50:00,25.4,18.0,29.79,NNE,31,0.0,0.0,74,0.00,,,0.11,weatherlink.com 1.10,2013-03-21 01:50:00,
2013-03-20 22:05:00,25.4,18.0,29.79,NNE,32,0.0,0.0,73,0.00,,,0.11,weatherlink.com 1.10,2013-03-21 02:05:00,
2013-03-20 22:20:00,24.4,18.0,29.79,NNE,32,0.0,0.0,75,0.00,,,0.11,weatherlink.com 1.10,2013-03-21 02:20:00,
2013-03-20 22:35:00,23.5,17.0,29.79,NNE,31,0.0,0.0,77,0.00,,,0.11,weatherlink.com 1.10,2013-03-21 02:35:00,
2013-03-20 22:50:00,23.3,17.0,29.79,NNE,32,0.0,0.0,78,0.00,,,0.11,weatherlink.com 1.10,2013-03-21 02:50:00,
2013-03-20 23:05:00,24.1,18.0,29.79,SSE,163,0.0,0.0,76,0.00,,,0.11,weatherlink.com 1.10,2013-03-21 03:05:00,
2013-03-20 23:20:00,23.9,17.0,29.79,East,79,0.0,0.0,76,0.00,,,0.11,weatherlink.com 1.10,2013-03-21 03:20:00,
2013-03-20 23:35:00,24.1,18.0,29.79,NNE,31,0.0,0.0,76,0.00,,,0.11,weatherlink.com 1.10,2013-03-21 03:35:00,
2013-03-20 23:50:00,23.6,17.0,29.80,WSW,239,0.0,0.0,76,0.00,,,0.11,weatherlink.com 1.10,2013-03-21 03:50:00,